Flight Track Log - Related Links

Times and Time Zones

All times are in EDT time to prevent confusion due to time zone crossing. See the BJS542 flight status page for this flight to view local times or setup timezone preferences in your user account.

Time Position Orientation Groundspeed Altitude Reporting Facility
EDT Latitude Longitude Course Direction KTS MPH feet Rate Location/Type
Thu 03:59:21 PM 25.4592 -78.0097 284° West 327 376 11,500  Level Miami Center
Thu 04:00:21 PM 25.4753 -78.1042 281° West 327 376 15,400 2,250 Climbing Miami Center
Thu 04:01:21 PM 25.5267 -78.1944 302° West 322 371 16,000 300 Climbing Miami Center
Thu 04:02:21 PM 25.5486 -78.2961 283° West 339 390 16,000 50 Level Miami Center
Thu 04:03:00 PM 25.5291 -78.4764 281° West  Level FlightAware Approximate
Thu 04:03:21 PM 25.5436 -78.3972 267° West 339 390 16,100  Level Miami Center
Thu 04:04:00 PM 25.5474 -78.5630 284° West  Level FlightAware Approximate
Thu 04:04:21 PM 25.4800 -78.4864 232° Southwest 330 380 17,600  Level Miami Center
Thu 04:05:21 PM 25.4308 -78.5800 240° Southwest 342 394 20,700 2,200 Climbing Miami Center
Thu 04:06:21 PM 25.4294 -78.6928 269° West 346 398 22,000 650 Climbing Miami Center
Thu 04:07:21 PM 25.4364 -78.8103 274° West 370 426 22,000  Level Miami Center
Thu 04:08:21 PM 25.4386 -78.9344 271° West 393 452 22,000  Level Miami Center
Thu 04:09:21 PM 25.4453 -79.0611 273° West 393 452 22,000  Level Miami Center
Thu 04:10:21 PM 25.4497 -79.1786 272° West 388 447 22,000  Level Miami Center
Thu 04:11:21 PM 25.4500 -79.2914 270° West 383 441 22,000  Level Miami Center
Thu 04:12:21 PM 25.4544 -79.3997 273° West 372 428 22,000  Level Miami Center
Thu 04:13:21 PM 25.4547 -79.5008 270° West 351 404 22,000  Level Miami Center
Thu 04:14:21 PM 25.3911 -79.5617 221° Southwest 298 343 22,000  Level Miami Center
Thu 04:15:21 PM 25.3064 -79.6150 210° Southwest 312 359 22,000 350 Level Miami Center
Thu 04:16:21 PM 25.2197 -79.6658 208° Southwest 328 377 22,700 950 Climbing Miami Center
Thu 04:17:21 PM 25.1333 -79.7142 207° Southwest 346 398 23,900 1,700 Climbing Miami Center
Thu 04:18:21 PM 25.0361 -79.7647 205° Southwest 358 412 26,100 1,550 Climbing Miami Center
Thu 04:19:21 PM 24.9347 -79.8197 206° Southwest 385 443 27,000 450 Climbing Miami Center
Thu 04:20:21 PM 24.8228 -79.8786 206° Southwest 421 484 27,000  Level Miami Center
Thu 04:21:21 PM 24.7033 -79.8986 189° South 437 503 27,000  Level Miami Center
Thu 04:22:21 PM 24.5847 -79.8753 170° South 426 490 27,000  Level Miami Center
Thu 04:23:21 PM 24.4747 -79.8406 164° South 418 481 27,000 -50 Level Miami Center
Thu 04:24:21 PM 24.3625 -79.8061 164° South 418 481 26,900  Descending Miami Center
Thu 04:25:21 PM 24.2539 -79.8056 180° South 392 451 27,000 1,350 Climbing Miami Center
Thu 04:26:21 PM 24.1711 -79.8653 213° Southwest 358 412 29,600 2,300 Climbing Miami Center
Thu 04:27:21 PM 24.1272 -79.9689 245° Southwest 341 392 31,600 2,000 Climbing Miami Center
Thu 04:28:21 PM 24.1458 -80.0786 281° West 329 379 33,600 1,700 Climbing Miami Center
Thu 04:29:21 PM 24.2128 -80.1736 308° West 340 391 35,000 700 Climbing Miami Center
Thu 04:30:21 PM 24.2986 -80.2625 317° Northwest 378 435 35,000  Level Miami Center
Thu 04:31:21 PM 24.3861 -80.3561 316° Northwest 405 466 35,000  Level Miami Center
Thu 04:32:21 PM 24.4575 -80.4267 318° Northwest 410 472 35,000  Level Miami Center
Thu 04:33:21 PM 24.5411 -80.5114 317° Northwest 405 466 35,000  Level Miami Center
Thu 04:34:21 PM 24.6247 -80.5983 317° Northwest 405 466 35,000  Level Miami Center
Thu 04:35:21 PM 24.7203 -80.7017 316° Northwest 420 483 35,000 -750 Level Miami Center
Thu 04:36:21 PM 24.8036 -80.7892 316° Northwest 420 483 33,500 -1,950 Descending Miami Center
Thu 04:37:21 PM 24.8889 -80.8764 317° Northwest 420 483 31,100 -2,550 Descending Miami Center
Thu 04:38:21 PM 24.9703 -80.9617 316° Northwest 415 478 28,400 -2,450 Descending Miami Center
Thu 04:39:21 PM 25.0433 -81.0375 317° Northwest 410 472 26,200 -2,617 Descending Miami Center
Thu 04:41:00 PM 25.1682 -81.1670 317° Northwest  Level FlightAware Approximate
Thu 04:44:21 PM 25.4361 -81.4464 North 372 428 12,700  Level Miami Center
Thu 04:45:21 PM 25.4947 -81.5108 North 338 389 10,900 -1,850 Descending Miami Center
Thu 04:46:00 PM 25.5944 -81.5188 340° North  Level Estimated
Thu 04:46:21 PM 25.5711 -81.5436 339° North 297 342 9,000  Level Miami Center
Thu 04:47:21 PM 25.6389 -81.5717 340° North 278 320 7,700 -1,550 Descending Miami Center
Thu 04:48:00 PM 25.7578 -81.6064 340° North  Level FlightAware Approximate
Thu 04:48:21 PM 25.7175 -81.5978 343° North 273 314 5,900  Level Miami Center
Thu 04:49:00 PM 25.8535 -81.6500 North  Level FlightAware Approximate
Thu 04:49:21 PM 25.7833 -81.6281 338° Northwest 267 307 5,900  Level Miami Center
Thu 04:50:21 PM 25.8575 -81.6564 341° North 267 307 5,800 -950 Descending Miami Center
Thu 04:51:21 PM 25.9236 -81.6844 339° North 261 300 4,000 -1,050 Descending Miami Center
Thu 04:52:21 PM 25.9828 -81.7192 332° Northwest 254 292 3,700 -1,050 Descending Miami Center
Thu 04:53:00 PM 26.1500 -81.7667 North  Level FlightAware Approximate
Thu 04:53:21 PM 26.0314 -81.7697 317° Northwest 242 278 1,900  Level Miami Center
Thu 04:54:21 PM 26.0822 -81.8064 327° Northwest 232 267 1,200 -650 Descending Miami Center
Thu 04:55:21 PM 26.1283 -81.8036 North 186 214 600 -550 Descending Miami Center
Thu 04:56:21 PM 26.1661 -81.7983 North 141 162 100 -500 Descending Miami Center
Thu 04:58:00 PM 26.1524 -81.7756 North  Level Estimated

Login

Don't have an account? Register now (free) for customized features, flight alerts, and more!